sensor_id;sensor_type;location;lat;lon;timestamp;temperature;humidity
4677;DHT22;2352;48.180;11.478;2022-07-06T00:01:04;22.10;63.70
4677;DHT22;2352;48.180;11.478;2022-07-06T00:04:07;22.20;63.50
4677;DHT22;2352;48.180;11.478;2022-07-06T00:07:10;22.20;63.60
4677;DHT22;2352;48.180;11.478;2022-07-06T00:10:13;22.20;63.00
4677;DHT22;2352;48.180;11.478;2022-07-06T00:13:15;22.20;63.70
4677;DHT22;2352;48.180;11.478;2022-07-06T00:16:20;22.20;63.60
4677;DHT22;2352;48.180;11.478;2022-07-06T00:19:23;22.20;64.20
4677;DHT22;2352;48.180;11.478;2022-07-06T00:22:26;22.20;64.30
4677;DHT22;2352;48.180;11.478;2022-07-06T00:25:29;22.30;64.50
4677;DHT22;2352;48.180;11.478;2022-07-06T00:28:32;22.20;64.70
4677;DHT22;2352;48.180;11.478;2022-07-06T00:31:36;22.20;65.10
4677;DHT22;2352;48.180;11.478;2022-07-06T00:34:39;22.20;63.70
4677;DHT22;2352;48.180;11.478;2022-07-06T00:37:42;22.20;65.20
4677;DHT22;2352;48.180;11.478;2022-07-06T00:40:45;22.20;65.40
4677;DHT22;2352;48.180;11.478;2022-07-06T00:43:49;22.20;66.40
4677;DHT22;2352;48.180;11.478;2022-07-06T00:46:53;22.10;67.30
4677;DHT22;2352;48.180;11.478;2022-07-06T00:49:56;22.10;67.80
4677;DHT22;2352;48.180;11.478;2022-07-06T00:53:19;22.10;66.70
4677;DHT22;2352;48.180;11.478;2022-07-06T00:56:22;22.20;67.50
4677;DHT22;2352;48.180;11.478;2022-07-06T00:59:27;22.20;67.90
4677;DHT22;2352;48.180;11.478;2022-07-06T01:02:32;22.10;67.90
4677;DHT22;2352;48.180;11.478;2022-07-06T01:05:35;22.10;67.40
4677;DHT22;2352;48.180;11.478;2022-07-06T01:08:38;22.00;68.40
4677;DHT22;2352;48.180;11.478;2022-07-06T01:11:41;22.00;68.90
4677;DHT22;2352;48.180;11.478;2022-07-06T01:14:45;22.00;68.70
4677;DHT22;2352;48.180;11.478;2022-07-06T01:17:49;22.10;69.50
4677;DHT22;2352;48.180;11.478;2022-07-06T01:21:09;22.00;69.80
4677;DHT22;2352;48.180;11.478;2022-07-06T01:24:12;22.00;70.60
4677;DHT22;2352;48.180;11.478;2022-07-06T01:27:15;22.00;69.70
4677;DHT22;2352;48.180;11.478;2022-07-06T01:30:19;22.00;71.10
4677;DHT22;2352;48.180;11.478;2022-07-06T01:33:22;22.00;70.90
4677;DHT22;2352;48.180;11.478;2022-07-06T01:36:26;21.90;70.60
4677;DHT22;2352;48.180;11.478;2022-07-06T01:39:29;21.90;71.00
4677;DHT22;2352;48.180;11.478;2022-07-06T01:42:32;21.90;71.20
4677;DHT22;2352;48.180;11.478;2022-07-06T01:45:35;21.90;71.00
4677;DHT22;2352;48.180;11.478;2022-07-06T01:48:38;21.80;70.30
4677;DHT22;2352;48.180;11.478;2022-07-06T01:51:42;21.70;71.50
4677;DHT22;2352;48.180;11.478;2022-07-06T01:54:45;21.70;70.80
4677;DHT22;2352;48.180;11.478;2022-07-06T01:57:48;21.60;70.80
4677;DHT22;2352;48.180;11.478;2022-07-06T02:00:51;21.60;70.80
4677;DHT22;2352;48.180;11.478;2022-07-06T02:03:54;21.70;70.90
4677;DHT22;2352;48.180;11.478;2022-07-06T02:06:58;21.60;70.40
4677;DHT22;2352;48.180;11.478;2022-07-06T02:10:01;21.50;70.90
4677;DHT22;2352;48.180;11.478;2022-07-06T02:13:03;21.40;71.00
4677;DHT22;2352;48.180;11.478;2022-07-06T02:16:06;21.40;71.10
4677;DHT22;2352;48.180;11.478;2022-07-06T02:19:10;21.50;72.30
4677;DHT22;2352;48.180;11.478;2022-07-06T02:22:14;21.30;71.70
4677;DHT22;2352;48.180;11.478;2022-07-06T02:25:17;21.20;71.70
4677;DHT22;2352;48.180;11.478;2022-07-06T02:28:20;21.10;72.60
4677;DHT22;2352;48.180;11.478;2022-07-06T02:31:23;21.00;73.20
4677;DHT22;2352;48.180;11.478;2022-07-06T02:34:26;21.00;73.00
4677;DHT22;2352;48.180;11.478;2022-07-06T02:37:30;20.90;73.20
4677;DHT22;2352;48.180;11.478;2022-07-06T02:40:32;21.00;74.00
4677;DHT22;2352;48.180;11.478;2022-07-06T02:43:37;21.00;73.60
4677;DHT22;2352;48.180;11.478;2022-07-06T02:46:40;21.00;74.50
4677;DHT22;2352;48.180;11.478;2022-07-06T02:49:43;21.10;74.30
4677;DHT22;2352;48.180;11.478;2022-07-06T02:52:47;21.10;73.90
4677;DHT22;2352;48.180;11.478;2022-07-06T02:55:50;21.10;73.10
4677;DHT22;2352;48.180;11.478;2022-07-06T02:58:53;21.10;73.60
4677;DHT22;2352;48.180;11.478;2022-07-06T03:01:55;21.10;73.50
4677;DHT22;2352;48.180;11.478;2022-07-06T03:04:58;21.10;73.50
4677;DHT22;2352;48.180;11.478;2022-07-06T03:08:03;21.00;74.80
4677;DHT22;2352;48.180;11.478;2022-07-06T03:11:06;20.90;74.10
4677;DHT22;2352;48.180;11.478;2022-07-06T03:14:09;20.90;74.00
4677;DHT22;2352;48.180;11.478;2022-07-06T03:17:12;20.90;74.60
4677;DHT22;2352;48.180;11.478;2022-07-06T03:20:15;20.80;74.90
4677;DHT22;2352;48.180;11.478;2022-07-06T03:23:19;20.70;75.00
4677;DHT22;2352;48.180;11.478;2022-07-06T03:26:22;20.70;74.80
4677;DHT22;2352;48.180;11.478;2022-07-06T03:29:25;20.70;75.20
4677;DHT22;2352;48.180;11.478;2022-07-06T03:32:28;20.70;75.20
4677;DHT22;2352;48.180;11.478;2022-07-06T03:35:30;20.70;74.80
4677;DHT22;2352;48.180;11.478;2022-07-06T03:38:35;20.60;75.10
4677;DHT22;2352;48.180;11.478;2022-07-06T03:41:38;20.50;74.90
4677;DHT22;2352;48.180;11.478;2022-07-06T03:44:41;20.60;74.90
4677;DHT22;2352;48.180;11.478;2022-07-06T03:47:43;20.50;75.50
4677;DHT22;2352;48.180;11.478;2022-07-06T03:50:46;20.60;75.80
4677;DHT22;2352;48.180;11.478;2022-07-06T03:53:50;20.50;75.60
4677;DHT22;2352;48.180;11.478;2022-07-06T03:56:53;20.40;76.30
4677;DHT22;2352;48.180;11.478;2022-07-06T03:59:56;20.30;76.30
4677;DHT22;2352;48.180;11.478;2022-07-06T04:03:00;20.30;77.00
4677;DHT22;2352;48.180;11.478;2022-07-06T04:06:03;20.30;76.90
4677;DHT22;2352;48.180;11.478;2022-07-06T04:09:07;20.30;76.10
4677;DHT22;2352;48.180;11.478;2022-07-06T04:12:11;20.30;77.20
4677;DHT22;2352;48.180;11.478;2022-07-06T04:15:17;20.30;77.10
4677;DHT22;2352;48.180;11.478;2022-07-06T04:18:20;20.30;76.90
4677;DHT22;2352;48.180;11.478;2022-07-06T04:21:23;20.40;77.00
4677;DHT22;2352;48.180;11.478;2022-07-06T04:24:28;20.40;77.00
4677;DHT22;2352;48.180;11.478;2022-07-06T04:27:30;20.30;75.80
4677;DHT22;2352;48.180;11.478;2022-07-06T04:30:33;20.20;77.10
4677;DHT22;2352;48.180;11.478;2022-07-06T04:33:36;20.20;76.60
4677;DHT22;2352;48.180;11.478;2022-07-06T04:36:39;20.20;77.00
4677;DHT22;2352;48.180;11.478;2022-07-06T04:39:43;20.00;77.50
4677;DHT22;2352;48.180;11.478;2022-07-06T04:42:46;20.00;77.60
4677;DHT22;2352;48.180;11.478;2022-07-06T04:45:48;19.90;77.60
4677;DHT22;2352;48.180;11.478;2022-07-06T04:48:51;20.00;78.30
4677;DHT22;2352;48.180;11.478;2022-07-06T04:51:54;20.10;78.30
4677;DHT22;2352;48.180;11.478;2022-07-06T04:54:58;20.20;78.70
4677;DHT22;2352;48.180;11.478;2022-07-06T04:58:01;20.30;78.90
4677;DHT22;2352;48.180;11.478;2022-07-06T05:01:04;20.20;77.80
4677;DHT22;2352;48.180;11.478;2022-07-06T05:04:07;20.30;77.60
4677;DHT22;2352;48.180;11.478;2022-07-06T05:07:10;20.20;77.80
4677;DHT22;2352;48.180;11.478;2022-07-06T05:10:14;20.30;79.00
4677;DHT22;2352;48.180;11.478;2022-07-06T05:13:18;20.10;79.80
4677;DHT22;2352;48.180;11.478;2022-07-06T05:16:21;20.20;80.60
4677;DHT22;2352;48.180;11.478;2022-07-06T05:19:24;20.10;80.80
4677;DHT22;2352;48.180;11.478;2022-07-06T05:22:27;20.10;81.70
4677;DHT22;2352;48.180;11.478;2022-07-06T05:25:31;20.20;82.00
4677;DHT22;2352;48.180;11.478;2022-07-06T05:28:34;20.30;82.90
4677;DHT22;2352;48.180;11.478;2022-07-06T05:31:37;20.40;82.40
4677;DHT22;2352;48.180;11.478;2022-07-06T05:34:40;20.50;80.20
4677;DHT22;2352;48.180;11.478;2022-07-06T05:37:43;20.50;81.40
4677;DHT22;2352;48.180;11.478;2022-07-06T05:40:47;20.60;80.40
4677;DHT22;2352;48.180;11.478;2022-07-06T05:43:50;20.60;80.30
4677;DHT22;2352;48.180;11.478;2022-07-06T05:46:53;20.60;79.60
4677;DHT22;2352;48.180;11.478;2022-07-06T05:50:16;20.70;80.10
4677;DHT22;2352;48.180;11.478;2022-07-06T05:53:18;20.80;80.00
4677;DHT22;2352;48.180;11.478;2022-07-06T05:56:23;20.70;78.00
4677;DHT22;2352;48.180;11.478;2022-07-06T05:59:25;20.80;77.20
4677;DHT22;2352;48.180;11.478;2022-07-06T06:02:36;20.80;76.00
4677;DHT22;2352;48.180;11.478;2022-07-06T06:05:39;20.70;75.30
4677;DHT22;2352;48.180;11.478;2022-07-06T06:08:42;20.60;75.60
4677;DHT22;2352;48.180;11.478;2022-07-06T06:11:46;20.60;76.80
4677;DHT22;2352;48.180;11.478;2022-07-06T06:14:49;20.70;76.60
4677;DHT22;2352;48.180;11.478;2022-07-06T06:17:52;20.70;75.30
4677;DHT22;2352;48.180;11.478;2022-07-06T06:20:54;20.80;75.00
4677;DHT22;2352;48.180;11.478;2022-07-06T06:23:57;20.80;74.90
4677;DHT22;2352;48.180;11.478;2022-07-06T06:27:02;20.80;75.20
4677;DHT22;2352;48.180;11.478;2022-07-06T06:30:06;20.90;75.10
4677;DHT22;2352;48.180;11.478;2022-07-06T06:33:10;20.90;75.20
4677;DHT22;2352;48.180;11.478;2022-07-06T06:36:13;21.00;75.40
4677;DHT22;2352;48.180;11.478;2022-07-06T06:39:16;21.00;75.70
4677;DHT22;2352;48.180;11.478;2022-07-06T06:42:20;21.00;74.00
4677;DHT22;2352;48.180;11.478;2022-07-06T06:45:24;21.00;74.90
4677;DHT22;2352;48.180;11.478;2022-07-06T06:48:27;21.10;76.20
4677;DHT22;2352;48.180;11.478;2022-07-06T06:51:29;21.10;75.30
4677;DHT22;2352;48.180;11.478;2022-07-06T06:54:32;21.20;74.60
4677;DHT22;2352;48.180;11.478;2022-07-06T06:57:36;21.10;74.90
4677;DHT22;2352;48.180;11.478;2022-07-06T07:00:39;21.10;76.00
4677;DHT22;2352;48.180;11.478;2022-07-06T07:03:42;21.10;74.30
4677;DHT22;2352;48.180;11.478;2022-07-06T07:06:45;21.10;73.50
4677;DHT22;2352;48.180;11.478;2022-07-06T07:09:48;21.10;73.60
4677;DHT22;2352;48.180;11.478;2022-07-06T07:12:52;21.20;73.80
4677;DHT22;2352;48.180;11.478;2022-07-06T07:15:55;21.30;72.40
4677;DHT22;2352;48.180;11.478;2022-07-06T07:18:58;21.20;70.70
4677;DHT22;2352;48.180;11.478;2022-07-06T07:22:01;21.30;70.50
4677;DHT22;2352;48.180;11.478;2022-07-06T07:25:05;21.40;71.20
4677;DHT22;2352;48.180;11.478;2022-07-06T07:28:09;21.50;73.00
4677;DHT22;2352;48.180;11.478;2022-07-06T07:31:12;21.50;72.10
4677;DHT22;2352;48.180;11.478;2022-07-06T07:34:16;21.50;73.70
4677;DHT22;2352;48.180;11.478;2022-07-06T07:37:19;21.60;70.20
4677;DHT22;2352;48.180;11.478;2022-07-06T07:40:21;21.60;69.00
4677;DHT22;2352;48.180;11.478;2022-07-06T07:43:26;21.70;67.80
4677;DHT22;2352;48.180;11.478;2022-07-06T07:46:28;21.80;69.60
4677;DHT22;2352;48.180;11.478;2022-07-06T07:49:31;21.60;68.20
4677;DHT22;2352;48.180;11.478;2022-07-06T07:52:34;21.70;70.30
4677;DHT22;2352;48.180;11.478;2022-07-06T07:55:37;21.80;70.00
4677;DHT22;2352;48.180;11.478;2022-07-06T07:58:44;22.00;70.30
4677;DHT22;2352;48.180;11.478;2022-07-06T08:01:47;22.10;70.20
4677;DHT22;2352;48.180;11.478;2022-07-06T08:04:50;22.30;70.50
4677;DHT22;2352;48.180;11.478;2022-07-06T08:07:53;22.40;69.90
4677;DHT22;2352;48.180;11.478;2022-07-06T08:10:56;22.50;67.80
4677;DHT22;2352;48.180;11.478;2022-07-06T08:14:20;22.50;69.10
4677;DHT22;2352;48.180;11.478;2022-07-06T08:17:23;22.50;68.00
4677;DHT22;2352;48.180;11.478;2022-07-06T08:20:26;22.60;69.40
4677;DHT22;2352;48.180;11.478;2022-07-06T08:23:29;22.60;68.70
4677;DHT22;2352;48.180;11.478;2022-07-06T08:26:32;22.60;67.90
4677;DHT22;2352;48.180;11.478;2022-07-06T08:29:36;22.70;68.10
4677;DHT22;2352;48.180;11.478;2022-07-06T08:32:39;22.80;68.50
4677;DHT22;2352;48.180;11.478;2022-07-06T08:36:02;22.70;69.20
4677;DHT22;2352;48.180;11.478;2022-07-06T08:39:06;22.70;69.00
4677;DHT22;2352;48.180;11.478;2022-07-06T08:42:09;22.70;68.20
4677;DHT22;2352;48.180;11.478;2022-07-06T08:45:14;22.80;70.90
4677;DHT22;2352;48.180;11.478;2022-07-06T08:48:18;22.90;66.40
4677;DHT22;2352;48.180;11.478;2022-07-06T08:51:22;23.00;66.80
4677;DHT22;2352;48.180;11.478;2022-07-06T08:54:31;23.10;67.40
4677;DHT22;2352;48.180;11.478;2022-07-06T08:57:34;23.10;65.20
4677;DHT22;2352;48.180;11.478;2022-07-06T09:00:39;23.20;60.30
4677;DHT22;2352;48.180;11.478;2022-07-06T09:03:43;23.30;61.70
4677;DHT22;2352;48.180;11.478;2022-07-06T09:06:47;23.30;62.80
4677;DHT22;2352;48.180;11.478;2022-07-06T09:09:53;23.30;62.50
4677;DHT22;2352;48.180;11.478;2022-07-06T09:13:02;23.10;61.30
4677;DHT22;2352;48.180;11.478;2022-07-06T09:16:11;23.20;65.30
4677;DHT22;2352;48.180;11.478;2022-07-06T09:19:35;23.40;62.30
4677;DHT22;2352;48.180;11.478;2022-07-06T09:22:39;23.60;64.00
4677;DHT22;2352;48.180;11.478;2022-07-06T09:25:42;23.70;64.30
4677;DHT22;2352;48.180;11.478;2022-07-06T09:28:45;23.90;64.40
4677;DHT22;2352;48.180;11.478;2022-07-06T09:31:57;23.90;61.30
4677;DHT22;2352;48.180;11.478;2022-07-06T09:35:00;24.00;63.90
4677;DHT22;2352;48.180;11.478;2022-07-06T09:38:05;24.20;64.30
4677;DHT22;2352;48.180;11.478;2022-07-06T09:41:08;24.30;64.50
4677;DHT22;2352;48.180;11.478;2022-07-06T09:44:11;24.40;62.10
4677;DHT22;2352;48.180;11.478;2022-07-06T09:47:15;24.50;60.50
4677;DHT22;2352;48.180;11.478;2022-07-06T09:50:18;24.60;59.80
4677;DHT22;2352;48.180;11.478;2022-07-06T09:53:23;24.60;59.30
4677;DHT22;2352;48.180;11.478;2022-07-06T09:56:36;24.60;61.00
4677;DHT22;2352;48.180;11.478;2022-07-06T09:59:39;24.70;62.10
4677;DHT22;2352;48.180;11.478;2022-07-06T10:02:44;24.80;59.90
4677;DHT22;2352;48.180;11.478;2022-07-06T10:05:56;24.90;56.80
4677;DHT22;2352;48.180;11.478;2022-07-06T10:09:00;25.00;59.20
4677;DHT22;2352;48.180;11.478;2022-07-06T10:12:05;25.00;57.30
4677;DHT22;2352;48.180;11.478;2022-07-06T10:15:12;24.70;59.10
4677;DHT22;2352;48.180;11.478;2022-07-06T10:18:17;24.90;58.70
4677;DHT22;2352;48.180;11.478;2022-07-06T10:21:21;25.00;57.50
4677;DHT22;2352;48.180;11.478;2022-07-06T10:24:26;25.10;57.10
4677;DHT22;2352;48.180;11.478;2022-07-06T10:27:29;25.30;57.40
4677;DHT22;2352;48.180;11.478;2022-07-06T10:30:33;25.40;56.60
4677;DHT22;2352;48.180;11.478;2022-07-06T10:33:37;25.40;55.90
4677;DHT22;2352;48.180;11.478;2022-07-06T10:36:43;25.40;55.00
4677;DHT22;2352;48.180;11.478;2022-07-06T10:39:48;25.30;56.80
4677;DHT22;2352;48.180;11.478;2022-07-06T10:43:09;25.40;57.70
4677;DHT22;2352;48.180;11.478;2022-07-06T10:46:13;25.70;57.90
4677;DHT22;2352;48.180;11.478;2022-07-06T10:49:18;25.80;56.00
4677;DHT22;2352;48.180;11.478;2022-07-06T10:52:48;25.80;58.20
4677;DHT22;2352;48.180;11.478;2022-07-06T10:55:52;25.90;54.20
4677;DHT22;2352;48.180;11.478;2022-07-06T10:58:55;25.90;54.20
4677;DHT22;2352;48.180;11.478;2022-07-06T11:02:14;25.90;56.40
4677;DHT22;2352;48.180;11.478;2022-07-06T11:05:41;26.00;54.60
4677;DHT22;2352;48.180;11.478;2022-07-06T11:09:05;26.20;56.60
4677;DHT22;2352;48.180;11.478;2022-07-06T11:12:15;26.30;55.90
4677;DHT22;2352;48.180;11.478;2022-07-06T11:15:46;26.40;55.60
4677;DHT22;2352;48.180;11.478;2022-07-06T11:18:58;26.10;54.30
4677;DHT22;2352;48.180;11.478;2022-07-06T11:22:07;26.20;55.40
4677;DHT22;2352;48.180;11.478;2022-07-06T11:25:10;26.40;54.80
4677;DHT22;2352;48.180;11.478;2022-07-06T11:28:15;26.30;53.70
4677;DHT22;2352;48.180;11.478;2022-07-06T11:31:18;26.40;52.30
4677;DHT22;2352;48.180;11.478;2022-07-06T11:34:22;26.50;52.40
4677;DHT22;2352;48.180;11.478;2022-07-06T11:37:26;26.60;50.70
4677;DHT22;2352;48.180;11.478;2022-07-06T11:40:29;26.70;52.10
4677;DHT22;2352;48.180;11.478;2022-07-06T11:43:32;26.80;50.10
4677;DHT22;2352;48.180;11.478;2022-07-06T11:46:36;26.90;49.50
4677;DHT22;2352;48.180;11.478;2022-07-06T11:49:40;26.70;54.20
4677;DHT22;2352;48.180;11.478;2022-07-06T11:52:45;27.00;52.30
4677;DHT22;2352;48.180;11.478;2022-07-06T11:55:48;27.10;50.40
4677;DHT22;2352;48.180;11.478;2022-07-06T11:58:52;27.20;51.30
4677;DHT22;2352;48.180;11.478;2022-07-06T12:01:59;27.20;49.40
4677;DHT22;2352;48.180;11.478;2022-07-06T12:05:02;27.10;49.40
4677;DHT22;2352;48.180;11.478;2022-07-06T12:08:08;27.00;49.70
4677;DHT22;2352;48.180;11.478;2022-07-06T12:11:17;27.00;48.90
4677;DHT22;2352;48.180;11.478;2022-07-06T12:14:21;27.10;50.80
4677;DHT22;2352;48.180;11.478;2022-07-06T12:17:25;27.20;48.40
4677;DHT22;2352;48.180;11.478;2022-07-06T12:20:28;27.30;50.40
4677;DHT22;2352;48.180;11.478;2022-07-06T12:23:40;27.60;50.00
4677;DHT22;2352;48.180;11.478;2022-07-06T12:26:43;27.70;49.70
4677;DHT22;2352;48.180;11.478;2022-07-06T12:29:47;27.60;50.00
4677;DHT22;2352;48.180;11.478;2022-07-06T12:33:11;27.60;51.50
4677;DHT22;2352;48.180;11.478;2022-07-06T12:36:15;27.60;49.50
4677;DHT22;2352;48.180;11.478;2022-07-06T12:39:20;27.50;48.60
4677;DHT22;2352;48.180;11.478;2022-07-06T12:42:23;27.70;48.70
4677;DHT22;2352;48.180;11.478;2022-07-06T12:45:26;27.60;47.10
4677;DHT22;2352;48.180;11.478;2022-07-06T12:48:29;27.70;48.30
4677;DHT22;2352;48.180;11.478;2022-07-06T12:51:50;27.60;48.20
4677;DHT22;2352;48.180;11.478;2022-07-06T12:54:55;27.80;47.70
4677;DHT22;2352;48.180;11.478;2022-07-06T12:57:58;27.90;47.60
4677;DHT22;2352;48.180;11.478;2022-07-06T13:01:01;27.90;48.20
4677;DHT22;2352;48.180;11.478;2022-07-06T13:04:08;27.70;46.20
4677;DHT22;2352;48.180;11.478;2022-07-06T13:07:18;27.80;49.10
4677;DHT22;2352;48.180;11.478;2022-07-06T13:10:23;27.90;49.20
4677;DHT22;2352;48.180;11.478;2022-07-06T13:13:26;28.00;47.90
4677;DHT22;2352;48.180;11.478;2022-07-06T13:16:29;28.10;48.60
4677;DHT22;2352;48.180;11.478;2022-07-06T13:19:36;28.30;48.10
4677;DHT22;2352;48.180;11.478;2022-07-06T13:22:39;28.40;48.20
4677;DHT22;2352;48.180;11.478;2022-07-06T13:25:43;28.40;45.70
4677;DHT22;2352;48.180;11.478;2022-07-06T13:28:46;28.50;46.30
4677;DHT22;2352;48.180;11.478;2022-07-06T13:31:49;28.40;49.20
4677;DHT22;2352;48.180;11.478;2022-07-06T13:34:52;28.60;48.70
4677;DHT22;2352;48.180;11.478;2022-07-06T13:37:55;28.70;46.40
4677;DHT22;2352;48.180;11.478;2022-07-06T13:40:59;28.70;45.90
4677;DHT22;2352;48.180;11.478;2022-07-06T13:44:02;28.80;46.80
4677;DHT22;2352;48.180;11.478;2022-07-06T13:47:11;28.50;45.30
4677;DHT22;2352;48.180;11.478;2022-07-06T13:50:14;28.50;45.60
4677;DHT22;2352;48.180;11.478;2022-07-06T13:53:17;28.60;48.50
4677;DHT22;2352;48.180;11.478;2022-07-06T13:56:21;28.80;46.70
4677;DHT22;2352;48.180;11.478;2022-07-06T13:59:24;28.90;45.90
4677;DHT22;2352;48.180;11.478;2022-07-06T14:02:27;29.00;46.50
4677;DHT22;2352;48.180;11.478;2022-07-06T14:05:30;29.00;46.40
4677;DHT22;2352;48.180;11.478;2022-07-06T14:08:33;29.10;44.80
4677;DHT22;2352;48.180;11.478;2022-07-06T14:11:37;29.10;45.80
4677;DHT22;2352;48.180;11.478;2022-07-06T14:14:40;29.10;44.70
4677;DHT22;2352;48.180;11.478;2022-07-06T14:17:43;29.10;45.80
4677;DHT22;2352;48.180;11.478;2022-07-06T14:20:46;29.20;46.80
4677;DHT22;2352;48.180;11.478;2022-07-06T14:23:49;29.20;43.90
4677;DHT22;2352;48.180;11.478;2022-07-06T14:26:53;29.10;44.90
4677;DHT22;2352;48.180;11.478;2022-07-06T14:29:56;29.10;45.80
4677;DHT22;2352;48.180;11.478;2022-07-06T14:32:59;29.10;45.20
4677;DHT22;2352;48.180;11.478;2022-07-06T14:36:03;29.20;46.00
4677;DHT22;2352;48.180;11.478;2022-07-06T14:39:06;29.20;42.70
4677;DHT22;2352;48.180;11.478;2022-07-06T14:42:10;29.10;45.00
4677;DHT22;2352;48.180;11.478;2022-07-06T14:45:13;29.20;44.50
4677;DHT22;2352;48.180;11.478;2022-07-06T14:48:16;29.20;43.90
4677;DHT22;2352;48.180;11.478;2022-07-06T14:51:19;29.20;44.90
4677;DHT22;2352;48.180;11.478;2022-07-06T14:54:22;29.20;44.60
4677;DHT22;2352;48.180;11.478;2022-07-06T14:57:26;29.10;42.80
4677;DHT22;2352;48.180;11.478;2022-07-06T15:00:29;29.00;43.50
4677;DHT22;2352;48.180;11.478;2022-07-06T15:03:32;28.90;42.10
4677;DHT22;2352;48.180;11.478;2022-07-06T15:06:35;28.70;43.60
4677;DHT22;2352;48.180;11.478;2022-07-06T15:09:57;28.80;42.90
4677;DHT22;2352;48.180;11.478;2022-07-06T15:13:01;28.60;43.90
4677;DHT22;2352;48.180;11.478;2022-07-06T15:16:04;28.70;44.10
4677;DHT22;2352;48.180;11.478;2022-07-06T15:19:07;28.70;43.70
4677;DHT22;2352;48.180;11.478;2022-07-06T15:22:10;28.70;43.60
4677;DHT22;2352;48.180;11.478;2022-07-06T15:25:13;28.80;43.50
4677;DHT22;2352;48.180;11.478;2022-07-06T15:28:17;28.70;42.30
4677;DHT22;2352;48.180;11.478;2022-07-06T15:31:21;28.60;43.40
4677;DHT22;2352;48.180;11.478;2022-07-06T15:34:24;28.60;43.40
4677;DHT22;2352;48.180;11.478;2022-07-06T15:37:27;28.60;44.90
4677;DHT22;2352;48.180;11.478;2022-07-06T15:40:30;28.70;45.10
4677;DHT22;2352;48.180;11.478;2022-07-06T15:43:40;28.60;43.30
4677;DHT22;2352;48.180;11.478;2022-07-06T15:46:43;28.40;42.70
4677;DHT22;2352;48.180;11.478;2022-07-06T15:49:48;28.40;43.90
4677;DHT22;2352;48.180;11.478;2022-07-06T15:52:54;28.30;42.30
4677;DHT22;2352;48.180;11.478;2022-07-06T15:55:58;28.20;42.50
4677;DHT22;2352;48.180;11.478;2022-07-06T15:59:02;28.10;43.10
4677;DHT22;2352;48.180;11.478;2022-07-06T16:02:05;28.00;42.80
4677;DHT22;2352;48.180;11.478;2022-07-06T16:05:08;28.00;44.40
4677;DHT22;2352;48.180;11.478;2022-07-06T16:08:11;28.00;43.10
4677;DHT22;2352;48.180;11.478;2022-07-06T16:11:32;27.90;43.50
4677;DHT22;2352;48.180;11.478;2022-07-06T16:14:36;27.80;43.60
4677;DHT22;2352;48.180;11.478;2022-07-06T16:17:39;27.70;42.90
4677;DHT22;2352;48.180;11.478;2022-07-06T16:20:41;27.80;44.30
4677;DHT22;2352;48.180;11.478;2022-07-06T16:23:44;27.80;44.10
4677;DHT22;2352;48.180;11.478;2022-07-06T16:26:47;27.80;43.20
4677;DHT22;2352;48.180;11.478;2022-07-06T16:29:51;27.70;43.80
4677;DHT22;2352;48.180;11.478;2022-07-06T16:32:54;27.70;44.90
4677;DHT22;2352;48.180;11.478;2022-07-06T16:35:57;27.60;45.30
4677;DHT22;2352;48.180;11.478;2022-07-06T16:39:00;27.60;43.00
4677;DHT22;2352;48.180;11.478;2022-07-06T16:42:04;27.40;44.70
4677;DHT22;2352;48.180;11.478;2022-07-06T16:45:09;27.50;44.90
4677;DHT22;2352;48.180;11.478;2022-07-06T16:48:12;27.40;46.00
4677;DHT22;2352;48.180;11.478;2022-07-06T16:51:15;27.40;45.70
4677;DHT22;2352;48.180;11.478;2022-07-06T16:54:18;27.40;44.50
4677;DHT22;2352;48.180;11.478;2022-07-06T16:57:21;27.30;44.20
4677;DHT22;2352;48.180;11.478;2022-07-06T17:00:25;27.10;44.60
4677;DHT22;2352;48.180;11.478;2022-07-06T17:03:28;27.10;44.70
4677;DHT22;2352;48.180;11.478;2022-07-06T17:06:31;27.10;45.20
4677;DHT22;2352;48.180;11.478;2022-07-06T17:09:34;27.10;45.40
4677;DHT22;2352;48.180;11.478;2022-07-06T17:12:37;27.10;45.00
4677;DHT22;2352;48.180;11.478;2022-07-06T17:15:41;27.10;45.60
4677;DHT22;2352;48.180;11.478;2022-07-06T17:18:44;27.10;45.30
4677;DHT22;2352;48.180;11.478;2022-07-06T17:21:47;27.10;45.50
4677;DHT22;2352;48.180;11.478;2022-07-06T17:24:56;27.10;46.50
4677;DHT22;2352;48.180;11.478;2022-07-06T17:27:59;27.00;45.30
4677;DHT22;2352;48.180;11.478;2022-07-06T17:31:03;27.00;45.70
4677;DHT22;2352;48.180;11.478;2022-07-06T17:34:06;27.00;45.50
4677;DHT22;2352;48.180;11.478;2022-07-06T17:37:09;26.80;45.70
4677;DHT22;2352;48.180;11.478;2022-07-06T17:40:12;26.80;45.50
4677;DHT22;2352;48.180;11.478;2022-07-06T17:43:15;26.80;46.90
4677;DHT22;2352;48.180;11.478;2022-07-06T17:46:19;26.70;46.10
4677;DHT22;2352;48.180;11.478;2022-07-06T17:49:22;26.70;46.70
4677;DHT22;2352;48.180;11.478;2022-07-06T17:52:25;26.70;46.40
4677;DHT22;2352;48.180;11.478;2022-07-06T17:55:28;26.70;46.00
4677;DHT22;2352;48.180;11.478;2022-07-06T17:58:31;26.60;46.10
4677;DHT22;2352;48.180;11.478;2022-07-06T18:01:35;26.60;45.60
4677;DHT22;2352;48.180;11.478;2022-07-06T18:04:38;26.60;47.40
4677;DHT22;2352;48.180;11.478;2022-07-06T18:07:41;26.60;48.10
4677;DHT22;2352;48.180;11.478;2022-07-06T18:10:44;26.50;46.50
4677;DHT22;2352;48.180;11.478;2022-07-06T18:13:47;26.40;46.40
4677;DHT22;2352;48.180;11.478;2022-07-06T18:16:51;26.50;46.70
4677;DHT22;2352;48.180;11.478;2022-07-06T18:19:54;26.50;47.70
4677;DHT22;2352;48.180;11.478;2022-07-06T18:22:57;26.40;48.00
4677;DHT22;2352;48.180;11.478;2022-07-06T18:26:00;26.50;48.50
4677;DHT22;2352;48.180;11.478;2022-07-06T18:29:04;26.40;48.70
4677;DHT22;2352;48.180;11.478;2022-07-06T18:32:08;26.40;48.70
4677;DHT22;2352;48.180;11.478;2022-07-06T18:35:11;26.40;49.00
4677;DHT22;2352;48.180;11.478;2022-07-06T18:38:14;26.20;47.90
4677;DHT22;2352;48.180;11.478;2022-07-06T18:41:17;26.20;48.70
4677;DHT22;2352;48.180;11.478;2022-07-06T18:44:20;26.20;48.60
4677;DHT22;2352;48.180;11.478;2022-07-06T18:47:24;26.10;49.20
4677;DHT22;2352;48.180;11.478;2022-07-06T18:50:27;26.10;49.10
4677;DHT22;2352;48.180;11.478;2022-07-06T18:53:30;26.00;48.60
4677;DHT22;2352;48.180;11.478;2022-07-06T18:56:34;26.00;49.60
4677;DHT22;2352;48.180;11.478;2022-07-06T18:59:37;26.00;49.60
4677;DHT22;2352;48.180;11.478;2022-07-06T19:02:45;26.00;49.50
4677;DHT22;2352;48.180;11.478;2022-07-06T19:05:48;25.90;50.60
4677;DHT22;2352;48.180;11.478;2022-07-06T19:08:51;25.90;50.20
4677;DHT22;2352;48.180;11.478;2022-07-06T19:11:54;25.80;49.40
4677;DHT22;2352;48.180;11.478;2022-07-06T19:14:57;25.70;49.00
4677;DHT22;2352;48.180;11.478;2022-07-06T19:18:02;25.60;49.60
4677;DHT22;2352;48.180;11.478;2022-07-06T19:21:05;25.60;49.40
4677;DHT22;2352;48.180;11.478;2022-07-06T19:24:08;25.60;49.90
4677;DHT22;2352;48.180;11.478;2022-07-06T19:27:12;25.50;49.80
4677;DHT22;2352;48.180;11.478;2022-07-06T19:30:15;25.50;49.80
4677;DHT22;2352;48.180;11.478;2022-07-06T19:33:20;25.50;50.20
4677;DHT22;2352;48.180;11.478;2022-07-06T19:36:22;25.50;51.20
4677;DHT22;2352;48.180;11.478;2022-07-06T19:39:25;25.50;50.00
4677;DHT22;2352;48.180;11.478;2022-07-06T19:42:28;25.50;50.50